Red Hook, NY

6:43 PM EST on January 27, 2015 (GMT -0500)
Pittsfield Municipal | Change Station
CLOSE
Current Station
Airport
Location: Pittsfield,
Elevation: 1194 ft
Nearby Weather Stations

Elev 1194 ft 42.43 °N, 73.29 °W | Updated 49 minutes ago

Overcast
Overcast
8 °F
Feels Like -6 °F
N
10
Wind Variable Wind from NW

Today
High -- | Low -- °F
--% Chance of Precip.
Yesterday
High -- | Low -- °F
Precip. -- in
7:13 AM 5:03 PM
First Quarter, 58% visible
Pressure 29.75 in
Visibility 5.0 miles
Clouds Overcast 4600 ft
Windchill -6 °F
Dew Point 0 °F
Humidity 70%
Rainfall 0.15 in
Snow Depth Not available.
UV 0 out of 12
Pollen .10 out of 12
Air Quality Not available.
Flu Activity Not available.
METAR KPSF 272254Z AUTO 32009KT 5SM -SN OVC046 M13/M18 A2966 RMK AO2 SNB42 SLP072 P0000 T11331178

More Conditions Fewer Conditions

Pressure 29.75 in
Visibility 5.0 miles
Clouds Overcast 4600 ft
Windchill -6 °F
Dew Point 0 °F
Humidity 70%
Rainfall 0.15 in
Snow Depth Not available.
UV 0 out of 12
Pollen .10 out of 12
Air Quality Not available.
Flu Activity Not available.
METAR KPSF 272254Z AUTO 32009KT 5SM -SN OVC046 M13/M18 A2966 RMK AO2 SNB42 SLP072 P0000 T11331178

More Conditions Fewer Conditions

10-Day Weather Forecast

Almanac

Astronomy

Jan. 27, 2015 Rise Set
Actual Time
Civil Twilight
Nautical Twilight
Astronomical Twilight
Moon
Length of Visible Light
Length of Day
Tomorrow will be .
, % of the Moon is Illuminated

Today's Extremes

State Highs State Lows

Community

WunderPhotos

Upload Photos

1,790,986 photos uploaded!

WunderBlogs® & News

Nearby

Air Quality

  Air Quality AQ Index Pollutant
Not available.

Snow Depth

Station Depth Elevation

Earthquake Activity

City Distance Mag. Time & Date
Minimum magnitude displayed is 2.5.

Coastal Water Temperatures

Place Temperature

Nearby Weather Stations